sensor_id;sensor_type;location;lat;lon;timestamp;pressure;altitude;pressure_sealevel;temperature;humidity
14293;BME280;62290;59.420;17.842;2023-05-22T00:00:13;102295.91;;;24.10;30.17
14293;BME280;62290;59.420;17.842;2023-05-22T00:02:41;102291.53;;;24.07;30.09
14293;BME280;62290;59.420;17.842;2023-05-22T00:05:10;102285.38;;;24.05;30.37
14293;BME280;62290;59.420;17.842;2023-05-22T00:07:39;102286.56;;;24.01;30.22
14293;BME280;62290;59.420;17.842;2023-05-22T00:10:11;102281.19;;;24.01;30.06
14293;BME280;62290;59.420;17.842;2023-05-22T00:12:39;102289.34;;;24.00;30.07
14293;BME280;62290;59.420;17.842;2023-05-22T00:15:07;102289.47;;;23.98;30.20
14293;BME280;62290;59.420;17.842;2023-05-22T00:17:37;102284.06;;;23.98;30.39
14293;BME280;62290;59.420;17.842;2023-05-22T00:20:06;102282.44;;;23.95;30.43
14293;BME280;62290;59.420;17.842;2023-05-22T00:22:36;102276.25;;;23.93;30.44
14293;BME280;62290;59.420;17.842;2023-05-22T00:25:05;102273.69;;;23.92;30.35
14293;BME280;62290;59.420;17.842;2023-05-22T00:27:35;102236.59;;;23.69;30.38
14293;BME280;62290;59.420;17.842;2023-05-22T00:30:05;102261.09;;;23.78;30.68
14293;BME280;62290;59.420;17.842;2023-05-22T00:32:34;102278.63;;;23.85;30.42
14293;BME280;62290;59.420;17.842;2023-05-22T00:35:02;102275.06;;;23.85;30.44
14293;BME280;62290;59.420;17.842;2023-05-22T00:37:30;102277.81;;;23.83;30.45
14293;BME280;62290;59.420;17.842;2023-05-22T00:39:58;102276.19;;;23.81;30.56
14293;BME280;62290;59.420;17.842;2023-05-22T00:42:27;102275.72;;;23.74;30.56
14293;BME280;62290;59.420;17.842;2023-05-22T00:44:56;102275.63;;;23.76;30.67
14293;BME280;62290;59.420;17.842;2023-05-22T00:47:24;102276.69;;;23.73;30.69
14293;BME280;62290;59.420;17.842;2023-05-22T00:49:52;102276.78;;;23.72;30.64
14293;BME280;62290;59.420;17.842;2023-05-22T00:52:21;102277.94;;;23.68;30.61
14293;BME280;62290;59.420;17.842;2023-05-22T00:54:52;102273.53;;;23.67;30.75
14293;BME280;62290;59.420;17.842;2023-05-22T00:57:21;102270.84;;;23.67;30.80
14293;BME280;62290;59.420;17.842;2023-05-22T00:59:50;102277.28;;;23.64;30.75
14293;BME280;62290;59.420;17.842;2023-05-22T01:02:20;102273.91;;;23.61;30.65
14293;BME280;62290;59.420;17.842;2023-05-22T01:04:48;102285.63;;;23.60;30.83
14293;BME280;62290;59.420;17.842;2023-05-22T01:07:16;102282.16;;;23.58;30.76
14293;BME280;62290;59.420;17.842;2023-05-22T01:09:45;102271.59;;;23.55;30.74
14293;BME280;62290;59.420;17.842;2023-05-22T01:12:19;102283.03;;;23.58;30.80
14293;BME280;62290;59.420;17.842;2023-05-22T01:14:57;102276.97;;;23.55;30.76
14293;BME280;62290;59.420;17.842;2023-05-22T01:17:32;102278.81;;;23.54;30.91
14293;BME280;62290;59.420;17.842;2023-05-22T01:20:09;102278.91;;;23.53;30.85
14293;BME280;62290;59.420;17.842;2023-05-22T01:25:55;102272.00;;;23.49;30.83
14293;BME280;62290;59.420;17.842;2023-05-22T01:31:35;102277.56;;;23.46;31.01
14293;BME280;62290;59.420;17.842;2023-05-22T01:34:10;102259.69;;;23.45;31.03
14293;BME280;62290;59.420;17.842;2023-05-22T01:36:39;102269.88;;;23.40;31.12
14293;BME280;62290;59.420;17.842;2023-05-22T01:39:09;102271.63;;;23.41;31.09
14293;BME280;62290;59.420;17.842;2023-05-22T01:41:39;102267.19;;;23.40;31.33
14293;BME280;62290;59.420;17.842;2023-05-22T01:44:09;102273.63;;;23.37;31.45
14293;BME280;62290;59.420;17.842;2023-05-22T01:46:39;102268.31;;;23.35;31.29
14293;BME280;62290;59.420;17.842;2023-05-22T01:49:07;102266.56;;;23.34;31.21
14293;BME280;62290;59.420;17.842;2023-05-22T01:51:44;102269.25;;;23.34;31.25
14293;BME280;62290;59.420;17.842;2023-05-22T01:54:18;102270.41;;;23.30;31.30
14293;BME280;62290;59.420;17.842;2023-05-22T01:56:52;102274.06;;;23.29;31.45
14293;BME280;62290;59.420;17.842;2023-05-22T01:59:27;102275.13;;;23.27;31.38
14293;BME280;62290;59.420;17.842;2023-05-22T02:02:04;102279.63;;;23.26;31.26
14293;BME280;62290;59.420;17.842;2023-05-22T02:04:37;102275.22;;;23.25;31.32
14293;BME280;62290;59.420;17.842;2023-05-22T02:07:06;102251.28;;;23.07;31.41
14293;BME280;62290;59.420;17.842;2023-05-22T02:09:39;102271.84;;;23.22;31.27
14293;BME280;62290;59.420;17.842;2023-05-22T02:12:11;102237.53;;;23.11;31.33
14293;BME280;62290;59.420;17.842;2023-05-22T02:14:40;102268.28;;;23.21;31.40
14293;BME280;62290;59.420;17.842;2023-05-22T02:17:10;102262.03;;;23.21;31.31
14293;BME280;62290;59.420;17.842;2023-05-22T02:19:38;102271.91;;;23.20;31.33
14293;BME280;62290;59.420;17.842;2023-05-22T02:22:06;102273.78;;;23.20;31.32
14293;BME280;62290;59.420;17.842;2023-05-22T02:24:39;102258.00;;;23.14;31.30
14293;BME280;62290;59.420;17.842;2023-05-22T02:27:08;102266.66;;;23.19;31.36
14293;BME280;62290;59.420;17.842;2023-05-22T02:29:36;102265.78;;;23.18;31.49
14293;BME280;62290;59.420;17.842;2023-05-22T02:32:05;102273.84;;;23.18;31.47
14293;BME280;62290;59.420;17.842;2023-05-22T02:34:34;102254.63;;;23.10;31.48
14293;BME280;62290;59.420;17.842;2023-05-22T02:37:04;102269.44;;;23.17;31.49
14293;BME280;62290;59.420;17.842;2023-05-22T02:39:32;102261.56;;;23.14;31.45
14293;BME280;62290;59.420;17.842;2023-05-22T02:42:00;102264.13;;;23.16;31.80
14293;BME280;62290;59.420;17.842;2023-05-22T02:44:29;102257.88;;;23.15;31.57
14293;BME280;62290;59.420;17.842;2023-05-22T02:46:57;102260.69;;;23.14;31.86
14293;BME280;62290;59.420;17.842;2023-05-22T02:49:26;102226.75;;;22.97;31.82
14293;BME280;62290;59.420;17.842;2023-05-22T02:51:55;102260.69;;;23.14;31.82
14293;BME280;62290;59.420;17.842;2023-05-22T02:54:23;102257.25;;;23.12;31.82
14293;BME280;62290;59.420;17.842;2023-05-22T02:56:51;102251.84;;;23.12;31.75
14293;BME280;62290;59.420;17.842;2023-05-22T02:59:19;102262.69;;;23.10;31.85
14293;BME280;62290;59.420;17.842;2023-05-22T03:01:47;102255.50;;;23.11;31.74
14293;BME280;62290;59.420;17.842;2023-05-22T03:04:16;102262.78;;;23.09;31.75
14293;BME280;62290;59.420;17.842;2023-05-22T03:06:44;102259.25;;;23.08;31.93
14293;BME280;62290;59.420;17.842;2023-05-22T03:09:13;102255.59;;;23.09;31.84
14293;BME280;62290;59.420;17.842;2023-05-22T03:11:43;102257.41;;;23.09;31.87
14293;BME280;62290;59.420;17.842;2023-05-22T03:14:11;102258.28;;;23.09;31.98
14293;BME280;62290;59.420;17.842;2023-05-22T03:16:39;102259.16;;;23.10;32.03
14293;BME280;62290;59.420;17.842;2023-05-22T03:19:08;102248.41;;;23.10;31.76
14293;BME280;62290;59.420;17.842;2023-05-22T03:21:37;102255.50;;;23.11;31.85
14293;BME280;62290;59.420;17.842;2023-05-22T03:24:06;102257.25;;;23.12;32.03
14293;BME280;62290;59.420;17.842;2023-05-22T03:26:36;102258.09;;;23.12;32.08
14293;BME280;62290;59.420;17.842;2023-05-22T03:29:07;102257.13;;;23.13;32.12
14293;BME280;62290;59.420;17.842;2023-05-22T03:31:38;102257.13;;;23.13;31.95
14293;BME280;62290;59.420;17.842;2023-05-22T03:34:09;102253.38;;;23.16;31.97
14293;BME280;62290;59.420;17.842;2023-05-22T03:36:39;102256.00;;;23.17;32.17
14293;BME280;62290;59.420;17.842;2023-05-22T03:39:07;102251.28;;;23.21;32.09
14293;BME280;62290;59.420;17.842;2023-05-22T03:41:42;102239.34;;;23.11;32.07
14293;BME280;62290;59.420;17.842;2023-05-22T03:44:10;102247.44;;;23.25;32.22
14293;BME280;62290;59.420;17.842;2023-05-22T03:46:38;102240.25;;;23.25;32.22
14293;BME280;62290;59.420;17.842;2023-05-22T03:49:06;102248.09;;;23.28;32.32
14293;BME280;62290;59.420;17.842;2023-05-22T03:51:35;102239.84;;;23.31;32.30
14293;BME280;62290;59.420;17.842;2023-05-22T03:54:04;102236.28;;;23.31;32.29
14293;BME280;62290;59.420;17.842;2023-05-22T03:56:32;102245.91;;;23.35;32.25
14293;BME280;62290;59.420;17.842;2023-05-22T03:59:02;102235.94;;;23.37;32.37
14293;BME280;62290;59.420;17.842;2023-05-22T04:01:30;102242.97;;;23.40;32.40
14293;BME280;62290;59.420;17.842;2023-05-22T04:03:58;102233.94;;;23.41;32.25
14293;BME280;62290;59.420;17.842;2023-05-22T04:06:28;102234.59;;;23.44;32.37
14293;BME280;62290;59.420;17.842;2023-05-22T04:08:59;102238.84;;;23.48;32.39
14293;BME280;62290;59.420;17.842;2023-05-22T04:11:28;102235.16;;;23.49;32.42
14293;BME280;62290;59.420;17.842;2023-05-22T04:14:03;102238.47;;;23.54;32.29
14293;BME280;62290;59.420;17.842;2023-05-22T04:16:31;102235.66;;;23.56;32.43
14293;BME280;62290;59.420;17.842;2023-05-22T04:18:59;102237.28;;;23.58;32.31
14293;BME280;62290;59.420;17.842;2023-05-22T04:21:29;102237.00;;;23.63;32.46
14293;BME280;62290;59.420;17.842;2023-05-22T04:24:00;102233.16;;;23.67;32.35
14293;BME280;62290;59.420;17.842;2023-05-22T04:26:33;102222.66;;;23.62;32.25
14293;BME280;62290;59.420;17.842;2023-05-22T04:29:03;102198.38;;;23.50;32.35
14293;BME280;62290;59.420;17.842;2023-05-22T04:31:35;102233.59;;;23.73;32.33
14293;BME280;62290;59.420;17.842;2023-05-22T04:34:05;102230.34;;;23.82;32.27
14293;BME280;62290;59.420;17.842;2023-05-22T04:36:33;102232.84;;;23.85;32.54
14293;BME280;62290;59.420;17.842;2023-05-22T04:39:01;102228.97;;;23.89;32.38
14293;BME280;62290;59.420;17.842;2023-05-22T04:41:29;102197.47;;;23.77;32.38
14293;BME280;62290;59.420;17.842;2023-05-22T04:43:58;102234.59;;;23.99;32.18
14293;BME280;62290;59.420;17.842;2023-05-22T04:46:27;102226.13;;;24.05;32.45
14293;BME280;62290;59.420;17.842;2023-05-22T04:48:55;102215.25;;;24.07;32.28
14293;BME280;62290;59.420;17.842;2023-05-22T04:51:28;102222.00;;;24.14;32.40
14293;BME280;62290;59.420;17.842;2023-05-22T04:53:57;102221.91;;;24.15;32.29
14293;BME280;62290;59.420;17.842;2023-05-22T04:56:27;102216.19;;;24.20;32.56
14293;BME280;62290;59.420;17.842;2023-05-22T04:59:02;102216.00;;;24.23;32.43
14293;BME280;62290;59.420;17.842;2023-05-22T05:01:36;102214.84;;;24.27;32.52
14293;BME280;62290;59.420;17.842;2023-05-22T05:04:04;102207.41;;;24.30;32.67
14293;BME280;62290;59.420;17.842;2023-05-22T05:06:32;102205.38;;;24.34;32.87
14293;BME280;62290;59.420;17.842;2023-05-22T05:09:02;102197.97;;;24.37;33.05
14293;BME280;62290;59.420;17.842;2023-05-22T05:11:30;102199.59;;;24.40;33.12
14293;BME280;62290;59.420;17.842;2023-05-22T05:13:58;102194.94;;;24.42;33.15
14293;BME280;62290;59.420;17.842;2023-05-22T05:16:27;102196.38;;;24.47;33.06
14293;BME280;62290;59.420;17.842;2023-05-22T05:18:57;102188.81;;;24.52;32.92
14293;BME280;62290;59.420;17.842;2023-05-22T05:21:25;102189.56;;;24.54;32.81
14293;BME280;62290;59.420;17.842;2023-05-22T05:23:58;102181.28;;;24.58;32.95
14293;BME280;62290;59.420;17.842;2023-05-22T05:26:26;102182.91;;;24.60;32.67
14293;BME280;62290;59.420;17.842;2023-05-22T05:28:54;102187.88;;;24.66;32.51
14293;BME280;62290;59.420;17.842;2023-05-22T05:31:29;102194.97;;;24.67;32.56
14293;BME280;62290;59.420;17.842;2023-05-22T05:34:32;102184.00;;;24.70;31.99
14293;BME280;62290;59.420;17.842;2023-05-22T05:37:09;102184.53;;;24.75;32.09
14293;BME280;62290;59.420;17.842;2023-05-22T05:39:37;102171.06;;;24.75;32.22
14293;BME280;62290;59.420;17.842;2023-05-22T05:42:07;102176.94;;;24.82;32.17
14293;BME280;62290;59.420;17.842;2023-05-22T05:44:36;102174.88;;;24.85;31.91
14293;BME280;62290;59.420;17.842;2023-05-22T05:47:06;102170.13;;;24.89;31.41
14293;BME280;62290;59.420;17.842;2023-05-22T05:49:35;102164.41;;;24.93;31.18
14293;BME280;62290;59.420;17.842;2023-05-22T05:52:05;102170.56;;;24.95;31.68
14293;BME280;62290;59.420;17.842;2023-05-22T05:54:34;102103.88;;;24.60;31.06
14293;BME280;62290;59.420;17.842;2023-05-22T05:57:10;102171.88;;;25.02;30.99
14293;BME280;62290;59.420;17.842;2023-05-22T05:59:38;102168.09;;;25.05;30.77
14293;BME280;62290;59.420;17.842;2023-05-22T06:02:34;102161.91;;;25.03;30.82
14293;BME280;62290;59.420;17.842;2023-05-22T06:05:06;102171.19;;;25.11;31.16
14293;BME280;62290;59.420;17.842;2023-05-22T06:07:37;102172.72;;;25.15;31.00
14293;BME280;62290;59.420;17.842;2023-05-22T06:10:08;102160.53;;;25.10;30.75
14293;BME280;62290;59.420;17.842;2023-05-22T06:12:50;102170.66;;;25.19;30.71
14293;BME280;62290;59.420;17.842;2023-05-22T06:15:18;102169.56;;;25.22;30.83
14293;BME280;62290;59.420;17.842;2023-05-22T06:17:46;102165.16;;;25.21;30.36
14293;BME280;62290;59.420;17.842;2023-05-22T06:20:16;102162.25;;;25.24;30.62
14293;BME280;62290;59.420;17.842;2023-05-22T06:22:44;102163.53;;;25.31;30.29
14293;BME280;62290;59.420;17.842;2023-05-22T06:25:12;102170.75;;;25.30;30.30
14293;BME280;62290;59.420;17.842;2023-05-22T06:27:40;102171.28;;;25.35;30.36
14293;BME280;62290;59.420;17.842;2023-05-22T06:30:09;102166.75;;;25.36;30.33
14293;BME280;62290;59.420;17.842;2023-05-22T06:32:38;102171.81;;;25.40;30.42
14293;BME280;62290;59.420;17.842;2023-05-22T06:35:07;102171.59;;;25.43;30.68
14293;BME280;62290;59.420;17.842;2023-05-22T06:37:37;102160.59;;;25.46;30.36
14293;BME280;62290;59.420;17.842;2023-05-22T06:40:06;102158.09;;;25.43;30.25
14293;BME280;62290;59.420;17.842;2023-05-22T06:42:42;102121.53;;;25.27;30.37
14293;BME280;62290;59.420;17.842;2023-05-22T06:45:29;102142.25;;;25.39;30.23
14293;BME280;62290;59.420;17.842;2023-05-22T06:48:17;102161.13;;;25.51;30.45
14293;BME280;62290;59.420;17.842;2023-05-22T06:51:24;102163.63;;;25.54;30.01
14293;BME280;62290;59.420;17.842;2023-05-22T06:54:03;102158.81;;;25.58;30.16
14293;BME280;62290;59.420;17.842;2023-05-22T06:56:35;102155.16;;;25.59;29.93
14293;BME280;62290;59.420;17.842;2023-05-22T06:59:09;102159.34;;;25.63;29.86
14293;BME280;62290;59.420;17.842;2023-05-22T07:02:00;102159.25;;;25.64;29.72
14293;BME280;62290;59.420;17.842;2023-05-22T07:04:52;102153.00;;;25.64;29.61
14293;BME280;62290;59.420;17.842;2023-05-22T07:07:27;102159.91;;;25.68;29.65
14293;BME280;62290;59.420;17.842;2023-05-22T07:09:57;102152.84;;;25.65;29.80
14293;BME280;62290;59.420;17.842;2023-05-22T07:12:26;102153.41;;;25.70;29.76
14293;BME280;62290;59.420;17.842;2023-05-22T07:14:55;102153.41;;;25.70;29.23
14293;BME280;62290;59.420;17.842;2023-05-22T07:17:25;102151.56;;;25.71;29.11
14293;BME280;62290;59.420;17.842;2023-05-22T07:19:55;102150.59;;;25.72;29.44
14293;BME280;62290;59.420;17.842;2023-05-22T07:22:24;102145.19;;;25.72;29.58
14293;BME280;62290;59.420;17.842;2023-05-22T07:24:54;102145.19;;;25.72;29.11
14293;BME280;62290;59.420;17.842;2023-05-22T07:27:28;102138.06;;;25.71;29.14
14293;BME280;62290;59.420;17.842;2023-05-22T07:29:57;102133.50;;;25.71;28.92
14293;BME280;62290;59.420;17.842;2023-05-22T07:32:25;102138.81;;;25.73;28.80
14293;BME280;62290;59.420;17.842;2023-05-22T07:34:55;102131.69;;;25.72;28.78
14293;BME280;62290;59.420;17.842;2023-05-22T07:37:23;102137.09;;;25.72;28.33
14293;BME280;62290;59.420;17.842;2023-05-22T07:39:51;102134.38;;;25.72;28.51
14293;BME280;62290;59.420;17.842;2023-05-22T07:42:19;102133.28;;;25.74;28.52
14293;BME280;62290;59.420;17.842;2023-05-22T07:44:53;102142.25;;;25.75;28.40
14293;BME280;62290;59.420;17.842;2023-05-22T07:47:24;102135.03;;;25.75;28.36
14293;BME280;62290;59.420;17.842;2023-05-22T07:49:52;102134.91;;;25.77;27.94
14293;BME280;62290;59.420;17.842;2023-05-22T07:52:20;102132.19;;;25.77;28.46
14293;BME280;62290;59.420;17.842;2023-05-22T07:54:50;102131.25;;;25.78;28.08
14293;BME280;62290;59.420;17.842;2023-05-22T07:57:19;102134.91;;;25.77;27.89
14293;BME280;62290;59.420;17.842;2023-05-22T07:59:49;102103.75;;;25.60;27.91
14293;BME280;62290;59.420;17.842;2023-05-22T08:02:19;102099.84;;;25.64;28.10
14293;BME280;62290;59.420;17.842;2023-05-22T08:04:48;102117.84;;;25.76;27.89
14293;BME280;62290;59.420;17.842;2023-05-22T08:07:16;102121.19;;;25.80;27.74
14293;BME280;62290;59.420;17.842;2023-05-22T08:09:44;102121.28;;;25.78;27.87
14293;BME280;62290;59.420;17.842;2023-05-22T08:12:12;102136.50;;;25.80;27.37
14293;BME280;62290;59.420;17.842;2023-05-22T08:14:40;102136.50;;;25.80;27.79
14293;BME280;62290;59.420;17.842;2023-05-22T08:17:08;102133.81;;;25.80;27.77
14293;BME280;62290;59.420;17.842;2023-05-22T08:19:38;102133.81;;;25.80;27.56
14293;BME280;62290;59.420;17.842;2023-05-22T08:22:06;102123.13;;;25.78;27.71
14293;BME280;62290;59.420;17.842;2023-05-22T08:24:35;102109.94;;;25.73;27.27
14293;BME280;62290;59.420;17.842;2023-05-22T08:27:03;102120.44;;;25.78;27.72
14293;BME280;62290;59.420;17.842;2023-05-22T08:29:31;102124.09;;;25.77;27.28
14293;BME280;62290;59.420;17.842;2023-05-22T08:31:59;102115.03;;;25.78;27.63
14293;BME280;62290;59.420;17.842;2023-05-22T08:34:27;102101.84;;;25.73;27.18
14293;BME280;62290;59.420;17.842;2023-05-22T08:36:57;102094.09;;;25.69;27.50
14293;BME280;62290;59.420;17.842;2023-05-22T08:39:25;102076.88;;;25.59;27.15
14293;BME280;62290;59.420;17.842;2023-05-22T08:41:54;102106.28;;;25.74;27.25
14293;BME280;62290;59.420;17.842;2023-05-22T08:44:22;102101.00;;;25.73;27.41
14293;BME280;62290;59.420;17.842;2023-05-22T08:46:51;102101.75;;;25.75;27.32
14293;BME280;62290;59.420;17.842;2023-05-22T08:49:20;102098.31;;;25.73;27.46
14293;BME280;62290;59.420;17.842;2023-05-22T08:51:55;102097.44;;;25.72;27.60
14293;BME280;62290;59.420;17.842;2023-05-22T08:54:25;102096.72;;;25.70;27.63
14293;BME280;62290;59.420;17.842;2023-05-22T08:56:53;102096.81;;;25.69;27.33
14293;BME280;62290;59.420;17.842;2023-05-22T08:59:23;102084.31;;;25.68;27.65
14293;BME280;62290;59.420;17.842;2023-05-22T09:01:52;102082.44;;;25.68;27.68
14293;BME280;62290;59.420;17.842;2023-05-22T09:04:20;102083.44;;;25.67;27.20
14293;BME280;62290;59.420;17.842;2023-05-22T09:06:50;102076.28;;;25.66;27.28
14293;BME280;62290;59.420;17.842;2023-05-22T09:09:18;102080.81;;;25.66;27.71
14293;BME280;62290;59.420;17.842;2023-05-22T09:11:48;102084.31;;;25.68;27.12
14293;BME280;62290;59.420;17.842;2023-05-22T09:14:17;102076.28;;;25.66;27.55
14293;BME280;62290;59.420;17.842;2023-05-22T09:16:46;102069.28;;;25.64;27.56
14293;BME280;62290;59.420;17.842;2023-05-22T09:19:15;102069.16;;;25.65;27.60
14293;BME280;62290;59.420;17.842;2023-05-22T09:21:43;102068.31;;;25.65;27.24
14293;BME280;62290;59.420;17.842;2023-05-22T09:24:11;102065.63;;;25.65;27.25
14293;BME280;62290;59.420;17.842;2023-05-22T09:26:39;102066.47;;;25.65;27.55
14293;BME280;62290;59.420;17.842;2023-05-22T09:29:09;102053.72;;;25.67;27.30
14293;BME280;62290;59.420;17.842;2023-05-22T09:31:41;102045.84;;;25.64;27.19
14293;BME280;62290;59.420;17.842;2023-05-22T09:34:12;102046.72;;;25.65;27.59
14293;BME280;62290;59.420;17.842;2023-05-22T09:36:41;102044.03;;;25.65;27.39
14293;BME280;62290;59.420;17.842;2023-05-22T09:39:10;102040.47;;;25.64;27.70
14293;BME280;62290;59.420;17.842;2023-05-22T09:41:39;102040.69;;;25.61;27.27
14293;BME280;62290;59.420;17.842;2023-05-22T09:44:14;102038.63;;;25.65;27.37
14293;BME280;62290;59.420;17.842;2023-05-22T09:46:44;102037.75;;;25.64;27.34
14293;BME280;62290;59.420;17.842;2023-05-22T09:49:14;102036.03;;;25.63;27.91
14293;BME280;62290;59.420;17.842;2023-05-22T09:51:44;102000.47;;;25.46;27.71
14293;BME280;62290;59.420;17.842;2023-05-22T09:54:15;102026.31;;;25.61;27.85
14293;BME280;62290;59.420;17.842;2023-05-22T09:56:47;102025.13;;;25.65;27.46
14293;BME280;62290;59.420;17.842;2023-05-22T09:59:19;102028.66;;;25.65;27.60
14293;BME280;62290;59.420;17.842;2023-05-22T10:01:49;102018.84;;;25.64;27.83
14293;BME280;62290;59.420;17.842;2023-05-22T10:04:18;102018.00;;;25.64;27.85
14293;BME280;62290;59.420;17.842;2023-05-22T10:06:50;102019.72;;;25.65;27.54
14293;BME280;62290;59.420;17.842;2023-05-22T10:09:22;102017.03;;;25.65;27.68
14293;BME280;62290;59.420;17.842;2023-05-22T10:11:52;102009.88;;;25.64;27.56
14293;BME280;62290;59.420;17.842;2023-05-22T10:14:23;101997.34;;;25.63;27.48
14293;BME280;62290;59.420;17.842;2023-05-22T10:16:55;101988.75;;;25.58;27.68
14293;BME280;62290;59.420;17.842;2023-05-22T10:19:28;101999.31;;;25.61;27.94
14293;BME280;62290;59.420;17.842;2023-05-22T10:21:59;101977.66;;;25.50;27.64
14293;BME280;62290;59.420;17.842;2023-05-22T10:24:28;101968.19;;;25.44;28.08
14293;BME280;62290;59.420;17.842;2023-05-22T10:26:56;101962.78;;;25.44;27.73
14293;BME280;62290;59.420;17.842;2023-05-22T10:29:30;101988.66;;;25.59;27.82
14293;BME280;62290;59.420;17.842;2023-05-22T10:32:07;101966.53;;;25.54;28.02
14293;BME280;62290;59.420;17.842;2023-05-22T10:34:50;101980.66;;;25.58;27.97
14293;BME280;62290;59.420;17.842;2023-05-22T10:37:31;101970.84;;;25.57;28.06
14293;BME280;62290;59.420;17.842;2023-05-22T10:40:08;101973.63;;;25.55;27.96
14293;BME280;62290;59.420;17.842;2023-05-22T10:42:38;101967.41;;;25.55;27.81
14293;BME280;62290;59.420;17.842;2023-05-22T10:45:09;101962.97;;;25.54;27.54
14293;BME280;62290;59.420;17.842;2023-05-22T10:47:38;101963.94;;;25.53;27.99
14293;BME280;62290;59.420;17.842;2023-05-22T10:50:08;101953.28;;;25.51;28.10
14293;BME280;62290;59.420;17.842;2023-05-22T10:52:38;101953.13;;;25.53;27.96
14293;BME280;62290;59.420;17.842;2023-05-22T10:55:07;101949.59;;;25.52;27.57
14293;BME280;62290;59.420;17.842;2023-05-22T10:57:36;101951.31;;;25.53;27.58
14293;BME280;62290;59.420;17.842;2023-05-22T11:00:08;101935.47;;;25.49;27.66
14293;BME280;62290;59.420;17.842;2023-05-22T11:02:41;101930.94;;;25.49;27.62
14293;BME280;62290;59.420;17.842;2023-05-22T11:05:33;101935.13;;;25.53;28.17
14293;BME280;62290;59.420;17.842;2023-05-22T11:08:09;101935.13;;;25.53;27.84
14293;BME280;62290;59.420;17.842;2023-05-22T11:10:54;101935.13;;;25.53;28.09
14293;BME280;62290;59.420;17.842;2023-05-22T11:13:25;101932.53;;;25.52;28.14
14293;BME280;62290;59.420;17.842;2023-05-22T11:15:56;101920.75;;;25.53;28.17
14293;BME280;62290;59.420;17.842;2023-05-22T11:18:27;101923.44;;;25.53;28.15
14293;BME280;62290;59.420;17.842;2023-05-22T11:20:58;101919.78;;;25.54;28.51
14293;BME280;62290;59.420;17.842;2023-05-22T11:23:26;101913.53;;;25.53;28.54
14293;BME280;62290;59.420;17.842;2023-05-22T11:25:54;101914.38;;;25.54;28.09
14293;BME280;62290;59.420;17.842;2023-05-22T11:28:22;101911.69;;;25.54;27.94
14293;BME280;62290;59.420;17.842;2023-05-22T11:30:51;101910.72;;;25.55;28.22
14293;BME280;62290;59.420;17.842;2023-05-22T11:33:22;101906.16;;;25.55;28.00
14293;BME280;62290;59.420;17.842;2023-05-22T11:35:52;101907.16;;;25.54;28.51
14293;BME280;62290;59.420;17.842;2023-05-22T11:38:20;101908.03;;;25.55;28.18
14293;BME280;62290;59.420;17.842;2023-05-22T11:40:50;101888.00;;;25.46;28.26
14293;BME280;62290;59.420;17.842;2023-05-22T11:43:27;101886.88;;;25.49;28.61
14293;BME280;62290;59.420;17.842;2023-05-22T11:45:59;101900.75;;;25.55;28.65
14293;BME280;62290;59.420;17.842;2023-05-22T11:48:29;101873.31;;;25.38;28.29
14293;BME280;62290;59.420;17.842;2023-05-22T11:50:57;101895.34;;;25.55;28.53
14293;BME280;62290;59.420;17.842;2023-05-22T11:53:26;101886.44;;;25.55;28.54
14293;BME280;62290;59.420;17.842;2023-05-22T11:55:54;101894.53;;;25.55;28.10
14293;BME280;62290;59.420;17.842;2023-05-22T11:58:26;101893.53;;;25.56;28.29
14293;BME280;62290;59.420;17.842;2023-05-22T12:00:59;101883.59;;;25.56;28.43
14293;BME280;62290;59.420;17.842;2023-05-22T12:03:30;101874.75;;;25.54;28.26
14293;BME280;62290;59.420;17.842;2023-05-22T12:06:00;101872.78;;;25.56;28.60
14293;BME280;62290;59.420;17.842;2023-05-22T12:08:28;101867.53;;;25.55;28.69
14293;BME280;62290;59.420;17.842;2023-05-22T12:10:56;101863.84;;;25.56;28.65
14293;BME280;62290;59.420;17.842;2023-05-22T12:13:26;101848.50;;;25.56;28.72
14293;BME280;62290;59.420;17.842;2023-05-22T12:15:57;101861.75;;;25.59;28.16
14293;BME280;62290;59.420;17.842;2023-05-22T12:18:26;101862.63;;;25.60;28.62
14293;BME280;62290;59.420;17.842;2023-05-22T12:20:55;101853.53;;;25.61;28.33
14293;BME280;62290;59.420;17.842;2023-05-22T12:23:24;101853.66;;;25.59;28.32
14293;BME280;62290;59.420;17.842;2023-05-22T12:25:59;101849.00;;;25.61;28.77
14293;BME280;62290;59.420;17.842;2023-05-22T12:28:30;101824.69;;;25.50;28.67
14293;BME280;62290;59.420;17.842;2023-05-22T12:30:58;101838.19;;;25.61;28.76
14293;BME280;62290;59.420;17.842;2023-05-22T12:33:27;101830.25;;;25.60;28.51
14293;BME280;62290;59.420;17.842;2023-05-22T12:35:57;101826.28;;;25.64;28.61
14293;BME280;62290;59.420;17.842;2023-05-22T12:38:25;101829.00;;;25.64;28.85
14293;BME280;62290;59.420;17.842;2023-05-22T12:40:54;101811.69;;;25.55;28.49
14293;BME280;62290;59.420;17.842;2023-05-22T12:43:23;101828.03;;;25.65;28.70
14293;BME280;62290;59.420;17.842;2023-05-22T12:45:52;101821.75;;;25.64;28.88
14293;BME280;62290;59.420;17.842;2023-05-22T12:48:20;101817.22;;;25.65;29.06
14293;BME280;62290;59.420;17.842;2023-05-22T12:50:48;101815.25;;;25.67;28.96
14293;BME280;62290;59.420;17.842;2023-05-22T12:53:18;101809.88;;;25.67;28.69
14293;BME280;62290;59.420;17.842;2023-05-22T12:55:46;101819.69;;;25.68;29.03
14293;BME280;62290;59.420;17.842;2023-05-22T12:58:14;101814.28;;;25.68;28.81
14293;BME280;62290;59.420;17.842;2023-05-22T13:00:42;101814.28;;;25.68;28.66
14293;BME280;62290;59.420;17.842;2023-05-22T13:03:10;101817.81;;;25.68;28.52